ALS233 LFML-LGIR
Flight info
| Callsign | ALS233 |
|---|---|
| Flight time | 2h 36m |
| Altitude | 38000 |
| Route | NASIK P856 RAPED DCT PIGOS DCT EKSID DCT NOSTA DCT EGHIN DCT BEROK DCT DOBOG DCT OGAPU DCT IBENI DCT KOFER DCT PINDO DCT KEA UL607 GIVIS T514 XAVIS |
| Aircraft | A346/H-SDE2E3FGHIJ3J4J5M1RWXY/LB1D1 |
Departure
| Time | 2026-05-04 12:28 |
|---|---|
| Airport | Marseille Provence Airport (LFML) |
Arrival
| Time | 2026-05-04 15:04 |
|---|---|
| Airport | Heraklion International Nikos Kazantzakis Airport (LGIR) |
| Time | Latitude | Longitude | Altitude | Speed | Heading |
|---|---|---|---|---|---|
| 2026-05-04 12:04 | 43.44154 | 5.21894 | 43 ft | 0 kts | 63° |
| 2026-05-04 12:16 | 43.44153 | 5.21889 | 43 ft | 2 kts | 63° |
| 2026-05-04 12:16 | 43.44146 | 5.21871 | 43 ft | 2 kts | 60° |
| 2026-05-04 12:16 | 43.44138 | 5.21853 | 43 ft | 2 kts | 56° |
| 2026-05-04 12:17 | 43.44130 | 5.21837 | 43 ft | 2 kts | 53° |
| 2026-05-04 12:17 | 43.44120 | 5.21820 | 43 ft | 2 kts | 50° |
| 2026-05-04 12:17 | 43.44111 | 5.21805 | 43 ft | 2 kts | 46° |
| 2026-05-04 12:17 | 43.44100 | 5.21790 | 43 ft | 2 kts | 43° |
| 2026-05-04 12:18 | 43.44089 | 5.21776 | 43 ft | 2 kts | 40° |
| 2026-05-04 12:18 | 43.44078 | 5.21762 | 43 ft | 2 kts | 47° |
| 2026-05-04 12:18 | 43.44069 | 5.21747 | 43 ft | 2 kts | 56° |
| 2026-05-04 12:18 | 43.44061 | 5.21730 | 43 ft | 1 kts | 59° |
| 2026-05-04 12:19 | 43.44056 | 5.21718 | 43 ft | 2 kts | 54° |
| 2026-05-04 12:19 | 43.44046 | 5.21704 | 43 ft | 2 kts | 36° |
| 2026-05-04 12:19 | 43.44033 | 5.21694 | 43 ft | 2 kts | 22° |
| 2026-05-04 12:19 | 43.44019 | 5.21687 | 43 ft | 2 kts | 9° |
| 2026-05-04 12:20 | 43.44004 | 5.21686 | 43 ft | 2 kts | 355° |
| 2026-05-04 12:20 | 43.43990 | 5.21690 | 44 ft | 2 kts | 341° |
| 2026-05-04 12:20 | 43.43976 | 5.21698 | 44 ft | 2 kts | 327° |
| 2026-05-04 12:20 | 43.43965 | 5.21710 | 44 ft | 2 kts | 314° |
| 2026-05-04 12:21 | 43.43960 | 5.21718 | 44 ft | 0 kts | 309° |
| 2026-05-04 12:23 | 43.43961 | 5.21715 | 44 ft | 2 kts | 309° |
| 2026-05-04 12:23 | 43.43980 | 5.21675 | 44 ft | 5 kts | 283° |
| 2026-05-04 12:23 | 43.43958 | 5.21633 | 43 ft | 6 kts | 220° |
| 2026-05-04 12:23 | 43.43926 | 5.21571 | 43 ft | 9 kts | 249° |
| 2026-05-04 12:24 | 43.43925 | 5.21478 | 42 ft | 11 kts | 298° |
| 2026-05-04 12:24 | 43.43992 | 5.21404 | 39 ft | 15 kts | 327° |
| 2026-05-04 12:24 | 43.44063 | 5.21295 | 37 ft | 16 kts | 303° |
| 2026-05-04 12:24 | 43.44148 | 5.21159 | 34 ft | 20 kts | 312° |
| 2026-05-04 12:25 | 43.44246 | 5.21016 | 32 ft | 18 kts | 314° |
| 2026-05-04 12:25 | 43.44305 | 5.20895 | 30 ft | 13 kts | 274° |
| 2026-05-04 12:25 | 43.44274 | 5.20759 | 29 ft | 15 kts | 230° |
| 2026-05-04 12:25 | 43.44204 | 5.20632 | 29 ft | 18 kts | 238° |
| 2026-05-04 12:26 | 43.44152 | 5.20495 | 28 ft | 6 kts | 242° |
| 2026-05-04 12:26 | 43.44143 | 5.20473 | 28 ft | 1 kts | 242° |
| 2026-05-04 12:26 | 43.44131 | 5.20441 | 28 ft | 6 kts | 239° |
| 2026-05-04 12:26 | 43.44087 | 5.20401 | 28 ft | 8 kts | 179° |
| 2026-05-04 12:27 | 43.44025 | 5.20451 | 29 ft | 11 kts | 136° |
| 2026-05-04 12:27 | 43.43942 | 5.20566 | 30 ft | 36 kts | 135° |
| 2026-05-04 12:27 | 43.43528 | 5.21133 | 43 ft | 127 kts | 134° |
| 2026-05-04 12:27 | 43.42750 | 5.22194 | 414 ft | 169 kts | 136° |
| 2026-05-04 12:28 | 43.41958 | 5.23232 | 1335 ft | 157 kts | 135° |
| 2026-05-04 12:28 | 43.41282 | 5.24347 | 2092 ft | 158 kts | 114° |
| 2026-05-04 12:28 | 43.41273 | 5.25936 | 2593 ft | 183 kts | 77° |
| 2026-05-04 12:28 | 43.41755 | 5.27642 | 3134 ft | 202 kts | 74° |
| 2026-05-04 12:29 | 43.42229 | 5.29508 | 3749 ft | 215 kts | 77° |
| 2026-05-04 12:29 | 43.42632 | 5.31512 | 4528 ft | 223 kts | 81° |
| 2026-05-04 12:29 | 43.42958 | 5.33661 | 5092 ft | 243 kts | 86° |
| 2026-05-04 12:29 | 43.43079 | 5.36034 | 5762 ft | 258 kts | 94° |
| 2026-05-04 12:30 | 43.43005 | 5.38517 | 6634 ft | 266 kts | 97° |
| 2026-05-04 12:30 | 43.42889 | 5.41083 | 7602 ft | 272 kts | 97° |
| 2026-05-04 12:30 | 43.42763 | 5.43654 | 8502 ft | 279 kts | 97° |
| 2026-05-04 12:30 | 43.42630 | 5.46347 | 9391 ft | 287 kts | 97° |
| 2026-05-04 12:31 | 43.42494 | 5.49108 | 10262 ft | 294 kts | 97° |
| 2026-05-04 12:31 | 43.42353 | 5.51951 | 10936 ft | 309 kts | 97° |
| 2026-05-04 12:31 | 43.42203 | 5.54948 | 11466 ft | 327 kts | 96° |
| 2026-05-04 12:31 | 43.42043 | 5.58158 | 11969 ft | 346 kts | 96° |
| 2026-05-04 12:32 | 43.41876 | 5.61529 | 12461 ft | 365 kts | 96° |
| 2026-05-04 12:32 | 43.41505 | 5.68838 | 13566 ft | 396 kts | 97° |
| 2026-05-04 12:32 | 43.41371 | 5.72628 | 14419 ft | 402 kts | 94° |
| 2026-05-04 12:33 | 43.41397 | 5.76459 | 15292 ft | 407 kts | 90° |
| 2026-05-04 12:33 | 43.41525 | 5.80370 | 16096 ft | 413 kts | 90° |
| 2026-05-04 12:33 | 43.41668 | 5.84317 | 16865 ft | 419 kts | 89° |
| 2026-05-04 12:33 | 43.41811 | 5.88316 | 17621 ft | 424 kts | 89° |
| 2026-05-04 12:34 | 43.41952 | 5.92353 | 18373 ft | 429 kts | 89° |
| 2026-05-04 12:34 | 43.42094 | 5.96473 | 19120 ft | 434 kts | 89° |
| 2026-05-04 12:34 | 43.42236 | 6.00659 | 19827 ft | 439 kts | 89° |
| 2026-05-04 12:34 | 43.42374 | 6.04827 | 20495 ft | 445 kts | 89° |
| 2026-05-04 12:35 | 43.42515 | 6.09120 | 21165 ft | 450 kts | 89° |
| 2026-05-04 12:35 | 43.42654 | 6.13435 | 21825 ft | 456 kts | 89° |
| 2026-05-04 12:35 | 43.42790 | 6.17770 | 22480 ft | 460 kts | 89° |
| 2026-05-04 12:35 | 43.42911 | 6.22145 | 23117 ft | 464 kts | 91° |
| 2026-05-04 12:36 | 43.42884 | 6.26613 | 23717 ft | 469 kts | 94° |
| 2026-05-04 12:36 | 43.42670 | 6.31121 | 24303 ft | 474 kts | 97° |
| 2026-05-04 12:36 | 43.42298 | 6.35599 | 24878 ft | 479 kts | 99° |
| 2026-05-04 12:36 | 43.41882 | 6.40170 | 25432 ft | 484 kts | 99° |
| 2026-05-04 12:37 | 43.41454 | 6.44785 | 25979 ft | 489 kts | 99° |
| 2026-05-04 12:37 | 43.41024 | 6.49416 | 26497 ft | 495 kts | 99° |
| 2026-05-04 12:37 | 43.40592 | 6.54106 | 26991 ft | 500 kts | 99° |
| 2026-05-04 12:37 | 43.40157 | 6.58853 | 27499 ft | 505 kts | 99° |
| 2026-05-04 12:38 | 43.39716 | 6.63651 | 27982 ft | 511 kts | 99° |
| 2026-05-04 12:38 | 43.39263 | 6.68565 | 28447 ft | 516 kts | 100° |
| 2026-05-04 12:38 | 43.38808 | 6.73478 | 29054 ft | 517 kts | 100° |
| 2026-05-04 12:38 | 43.38429 | 6.78336 | 29737 ft | 519 kts | 96° |
| 2026-05-04 12:39 | 43.38481 | 6.83307 | 30340 ft | 523 kts | 87° |
| 2026-05-04 12:39 | 43.39033 | 6.88197 | 30962 ft | 526 kts | 78° |
| 2026-05-04 12:39 | 43.40091 | 6.92980 | 31702 ft | 524 kts | 69° |
| 2026-05-04 12:39 | 43.41619 | 6.97512 | 32451 ft | 521 kts | 60° |
| 2026-05-04 12:40 | 43.43545 | 7.01666 | 33174 ft | 518 kts | 53° |
| 2026-05-04 12:40 | 43.45645 | 7.05639 | 33880 ft | 515 kts | 52° |
| 2026-05-04 12:40 | 43.47769 | 7.09559 | 34543 ft | 513 kts | 52° |
| 2026-05-04 12:40 | 43.49877 | 7.13473 | 35090 ft | 511 kts | 52° |
| 2026-05-04 12:41 | 43.51994 | 7.17459 | 35602 ft | 510 kts | 52° |
| 2026-05-04 12:41 | 43.54069 | 7.21412 | 36073 ft | 510 kts | 52° |
| 2026-05-04 12:41 | 43.56132 | 7.25372 | 36547 ft | 510 kts | 52° |
| 2026-05-04 12:41 | 43.58168 | 7.29292 | 37028 ft | 510 kts | 52° |
| 2026-05-04 12:42 | 43.60239 | 7.33286 | 37434 ft | 513 kts | 52° |
| 2026-05-04 12:42 | 43.62318 | 7.37303 | 37776 ft | 515 kts | 52° |
| 2026-05-04 12:42 | 43.64388 | 7.41304 | 38067 ft | 518 kts | 52° |
| 2026-05-04 12:43 | 43.68600 | 7.49475 | 38082 ft | 529 kts | 52° |
| 2026-05-04 12:43 | 43.72847 | 7.57745 | 38082 ft | 529 kts | 52° |
| 2026-05-04 12:44 | 43.77099 | 7.66047 | 38082 ft | 529 kts | 53° |
| 2026-05-04 12:44 | 43.81363 | 7.74396 | 38089 ft | 528 kts | 53° |
| 2026-05-04 12:45 | 43.85605 | 7.82702 | 38098 ft | 527 kts | 53° |
| 2026-05-04 12:45 | 43.89826 | 7.90970 | 38105 ft | 527 kts | 53° |
| 2026-05-04 12:46 | 43.94038 | 7.99244 | 38114 ft | 526 kts | 53° |
| 2026-05-04 12:46 | 43.98266 | 8.07583 | 38117 ft | 526 kts | 53° |
| 2026-05-04 12:47 | 44.02149 | 8.16149 | 38121 ft | 526 kts | 62° |
| 2026-05-04 12:47 | 44.04923 | 8.25541 | 38117 ft | 526 kts | 72° |
| 2026-05-04 12:48 | 44.06436 | 8.35408 | 38114 ft | 526 kts | 84° |
| 2026-05-04 12:48 | 44.07055 | 8.45507 | 38110 ft | 525 kts | 86° |
| 2026-05-04 12:49 | 44.07584 | 8.55608 | 38103 ft | 525 kts | 86° |
| 2026-05-04 12:49 | 44.08139 | 8.65710 | 38103 ft | 525 kts | 86° |
| 2026-05-04 12:50 | 44.08701 | 8.75756 | 38101 ft | 524 kts | 86° |
| 2026-05-04 12:50 | 44.09264 | 8.85862 | 38102 ft | 524 kts | 86° |
| 2026-05-04 12:51 | 44.09817 | 8.95951 | 38102 ft | 523 kts | 86° |
| 2026-05-04 12:51 | 44.10360 | 9.06005 | 38097 ft | 523 kts | 86° |
| 2026-05-04 12:52 | 44.10894 | 9.16054 | 38096 ft | 523 kts | 86° |
| 2026-05-04 12:52 | 44.11422 | 9.26159 | 38091 ft | 523 kts | 86° |
| 2026-05-04 12:53 | 44.11935 | 9.36170 | 38092 ft | 523 kts | 86° |
| 2026-05-04 12:53 | 44.12445 | 9.46295 | 38098 ft | 523 kts | 86° |
| 2026-05-04 12:54 | 44.12944 | 9.56366 | 38097 ft | 523 kts | 85° |
| 2026-05-04 12:54 | 44.13435 | 9.66420 | 38103 ft | 523 kts | 86° |
| 2026-05-04 12:55 | 44.13919 | 9.76579 | 38110 ft | 523 kts | 86° |
| 2026-05-04 12:55 | 44.14390 | 9.86610 | 38116 ft | 523 kts | 86° |
| 2026-05-04 12:56 | 44.14854 | 9.96702 | 38114 ft | 523 kts | 86° |
| 2026-05-04 12:56 | 44.15309 | 10.06761 | 38125 ft | 522 kts | 86° |
| 2026-05-04 12:57 | 44.15756 | 10.16832 | 38132 ft | 521 kts | 86° |
| 2026-05-04 12:57 | 44.16192 | 10.26871 | 38134 ft | 520 kts | 86° |
| 2026-05-04 12:58 | 44.16485 | 10.36903 | 38128 ft | 519 kts | 90° |
| 2026-05-04 12:58 | 44.16265 | 10.46904 | 38122 ft | 519 kts | 92° |
| 2026-05-04 12:58 | 44.16122 | 10.51891 | 38287 ft | 518 kts | 92° |
| 2026-05-04 12:59 | 44.15977 | 10.56917 | 38178 ft | 517 kts | 92° |
| 2026-05-04 12:59 | 44.15694 | 10.66871 | 38133 ft | 516 kts | 92° |
| 2026-05-04 13:00 | 44.15413 | 10.76795 | 38135 ft | 515 kts | 92° |
| 2026-05-04 13:00 | 44.15123 | 10.86743 | 38135 ft | 514 kts | 93° |
| 2026-05-04 13:01 | 44.14827 | 10.96657 | 38124 ft | 513 kts | 92° |
| 2026-05-04 13:01 | 44.14525 | 11.06520 | 38139 ft | 513 kts | 92° |
| 2026-05-04 13:02 | 44.14623 | 11.16424 | 38137 ft | 512 kts | 87° |
| 2026-05-04 13:02 | 44.14946 | 11.26319 | 38141 ft | 511 kts | 87° |
| 2026-05-04 13:03 | 44.15259 | 11.36104 | 38133 ft | 510 kts | 87° |
| 2026-05-04 13:03 | 44.15554 | 11.45989 | 38123 ft | 510 kts | 87° |
| 2026-05-04 13:04 | 44.15726 | 11.55772 | 38169 ft | 509 kts | 91° |
| 2026-05-04 13:04 | 44.15322 | 11.65617 | 38012 ft | 509 kts | 95° |
| 2026-05-04 13:05 | 44.14799 | 11.75367 | 38100 ft | 510 kts | 95° |
| 2026-05-04 13:05 | 44.14270 | 11.85196 | 38112 ft | 510 kts | 94° |
| 2026-05-04 13:06 | 44.13741 | 11.95023 | 38113 ft | 508 kts | 94° |
| 2026-05-04 13:06 | 44.13210 | 12.04784 | 38107 ft | 507 kts | 94° |
| 2026-05-04 13:07 | 44.12672 | 12.14546 | 38101 ft | 507 kts | 94° |
| 2026-05-04 13:07 | 44.12122 | 12.24335 | 38101 ft | 507 kts | 94° |
| 2026-05-04 13:08 | 44.11567 | 12.34104 | 38099 ft | 507 kts | 94° |
| 2026-05-04 13:08 | 44.11004 | 12.43841 | 38101 ft | 507 kts | 94° |
| 2026-05-04 13:09 | 44.10431 | 12.53607 | 38096 ft | 506 kts | 94° |
| 2026-05-04 13:09 | 44.09854 | 12.63314 | 38095 ft | 506 kts | 94° |
| 2026-05-04 13:10 | 44.09265 | 12.73072 | 38087 ft | 506 kts | 95° |
| 2026-05-04 13:10 | 44.08672 | 12.82758 | 38084 ft | 506 kts | 95° |
| 2026-05-04 13:11 | 44.08069 | 12.92470 | 38088 ft | 505 kts | 95° |
| 2026-05-04 13:11 | 44.07458 | 13.02184 | 38087 ft | 505 kts | 95° |
| 2026-05-04 13:12 | 44.06840 | 13.11868 | 38083 ft | 504 kts | 95° |
| 2026-05-04 13:12 | 44.06216 | 13.21532 | 38087 ft | 504 kts | 95° |
| 2026-05-04 13:13 | 44.05584 | 13.31174 | 38089 ft | 504 kts | 95° |
| 2026-05-04 13:13 | 44.04944 | 13.40824 | 38092 ft | 503 kts | 95° |
| 2026-05-04 13:14 | 44.04297 | 13.50469 | 38092 ft | 503 kts | 95° |
| 2026-05-04 13:14 | 44.03643 | 13.60083 | 38090 ft | 502 kts | 95° |
| 2026-05-04 13:15 | 44.02980 | 13.69732 | 38094 ft | 502 kts | 95° |
| 2026-05-04 13:15 | 44.02277 | 13.79319 | 38094 ft | 501 kts | 98° |
| 2026-05-04 13:16 | 44.00914 | 13.88766 | 38101 ft | 500 kts | 105° |
| 2026-05-04 13:16 | 43.98661 | 13.97879 | 38098 ft | 500 kts | 113° |
| 2026-05-04 13:17 | 43.95569 | 14.06503 | 38099 ft | 499 kts | 120° |
| 2026-05-04 13:17 | 43.92151 | 14.14826 | 38104 ft | 499 kts | 120° |
| 2026-05-04 13:18 | 43.88723 | 14.23151 | 38103 ft | 500 kts | 120° |
| 2026-05-04 13:18 | 43.85283 | 14.31519 | 38101 ft | 500 kts | 120° |
| 2026-05-04 13:19 | 43.81845 | 14.39871 | 38103 ft | 501 kts | 120° |
| 2026-05-04 13:19 | 43.78407 | 14.48205 | 38101 ft | 502 kts | 120° |
| 2026-05-04 13:20 | 43.74947 | 14.56568 | 38103 ft | 502 kts | 120° |
| 2026-05-04 13:20 | 43.71473 | 14.64939 | 38103 ft | 503 kts | 120° |
| 2026-05-04 13:21 | 43.67999 | 14.73289 | 38106 ft | 503 kts | 120° |
| 2026-05-04 13:21 | 43.64519 | 14.81627 | 38102 ft | 503 kts | 120° |
| 2026-05-04 13:22 | 43.61037 | 14.89946 | 38102 ft | 503 kts | 120° |
| 2026-05-04 13:22 | 43.57533 | 14.98295 | 38106 ft | 503 kts | 120° |
| 2026-05-04 13:23 | 43.54030 | 15.06619 | 38102 ft | 504 kts | 120° |
| 2026-05-04 13:23 | 43.50518 | 15.14935 | 38101 ft | 504 kts | 120° |
| 2026-05-04 13:24 | 43.46991 | 15.23264 | 38102 ft | 505 kts | 120° |
| 2026-05-04 13:24 | 43.43469 | 15.31559 | 38102 ft | 506 kts | 120° |
| 2026-05-04 13:25 | 43.38142 | 15.44064 | 38102 ft | 507 kts | 120° |
| 2026-05-04 13:25 | 43.34582 | 15.52385 | 38104 ft | 508 kts | 120° |
| 2026-05-04 13:26 | 43.31004 | 15.60730 | 38102 ft | 508 kts | 120° |
| 2026-05-04 13:26 | 43.27410 | 15.69086 | 38104 ft | 509 kts | 121° |
| 2026-05-04 13:27 | 43.23825 | 15.77399 | 38106 ft | 510 kts | 121° |
| 2026-05-04 13:27 | 43.20212 | 15.85748 | 38109 ft | 511 kts | 121° |
| 2026-05-04 13:28 | 43.16601 | 15.94072 | 38112 ft | 511 kts | 120° |
| 2026-05-04 13:28 | 43.12965 | 16.02430 | 38113 ft | 512 kts | 120° |
| 2026-05-04 13:29 | 43.09331 | 16.10759 | 38115 ft | 512 kts | 120° |
| 2026-05-04 13:29 | 43.05689 | 16.19082 | 38119 ft | 512 kts | 120° |
| 2026-05-04 13:30 | 43.02015 | 16.27454 | 38119 ft | 513 kts | 120° |
| 2026-05-04 13:30 | 42.98350 | 16.35781 | 38121 ft | 513 kts | 120° |
| 2026-05-04 13:31 | 42.94685 | 16.44087 | 38121 ft | 513 kts | 120° |
| 2026-05-04 13:31 | 42.91029 | 16.52347 | 38120 ft | 514 kts | 120° |
| 2026-05-04 13:32 | 42.87339 | 16.60662 | 38120 ft | 514 kts | 120° |
| 2026-05-04 13:32 | 42.83633 | 16.68991 | 38119 ft | 514 kts | 121° |
| 2026-05-04 13:33 | 42.79939 | 16.77265 | 38121 ft | 515 kts | 120° |
| 2026-05-04 13:33 | 42.76230 | 16.85554 | 38121 ft | 514 kts | 120° |
| 2026-05-04 13:34 | 42.72496 | 16.93874 | 38121 ft | 515 kts | 120° |
| 2026-05-04 13:34 | 42.68773 | 17.02142 | 38118 ft | 515 kts | 120° |
| 2026-05-04 13:35 | 42.63157 | 17.14580 | 38115 ft | 516 kts | 120° |
| 2026-05-04 13:36 | 42.59408 | 17.22847 | 38117 ft | 516 kts | 120° |
| 2026-05-04 13:36 | 42.55647 | 17.31123 | 38111 ft | 516 kts | 120° |
| 2026-05-04 13:37 | 42.51883 | 17.39385 | 38111 ft | 517 kts | 120° |
| 2026-05-04 13:37 | 42.48111 | 17.47634 | 38115 ft | 517 kts | 120° |
| 2026-05-04 13:38 | 42.44340 | 17.55865 | 38117 ft | 517 kts | 120° |
| 2026-05-04 13:38 | 42.40573 | 17.64060 | 38121 ft | 517 kts | 120° |
| 2026-05-04 13:39 | 42.36779 | 17.72293 | 38113 ft | 518 kts | 120° |
| 2026-05-04 13:39 | 42.32969 | 17.80539 | 38116 ft | 518 kts | 120° |
| 2026-05-04 13:40 | 42.29151 | 17.88778 | 38126 ft | 518 kts | 120° |
| 2026-05-04 13:40 | 42.25335 | 17.96991 | 38120 ft | 518 kts | 120° |
| 2026-05-04 13:41 | 42.21521 | 18.05181 | 38127 ft | 518 kts | 120° |
| 2026-05-04 13:41 | 42.17701 | 18.13355 | 38132 ft | 518 kts | 120° |
| 2026-05-04 13:42 | 42.11960 | 18.25603 | 38123 ft | 518 kts | 120° |
| 2026-05-04 13:42 | 42.08110 | 18.33791 | 38126 ft | 518 kts | 120° |
| 2026-05-04 13:43 | 42.04254 | 18.41972 | 38128 ft | 519 kts | 120° |
| 2026-05-04 13:43 | 42.00402 | 18.50123 | 38127 ft | 518 kts | 120° |
| 2026-05-04 13:44 | 41.96550 | 18.58252 | 38124 ft | 518 kts | 119° |
| 2026-05-04 13:44 | 41.92590 | 18.66322 | 38126 ft | 520 kts | 124° |
| 2026-05-04 13:45 | 41.88095 | 18.73954 | 38125 ft | 521 kts | 127° |
| 2026-05-04 13:45 | 41.83511 | 18.81427 | 38123 ft | 521 kts | 127° |
| 2026-05-04 13:46 | 41.78928 | 18.88906 | 38121 ft | 521 kts | 127° |
| 2026-05-04 13:46 | 41.74321 | 18.96415 | 38121 ft | 521 kts | 127° |
| 2026-05-04 13:47 | 41.69742 | 19.03871 | 38113 ft | 522 kts | 127° |
| 2026-05-04 13:47 | 41.65127 | 19.11364 | 38114 ft | 522 kts | 127° |
| 2026-05-04 13:48 | 41.60542 | 19.18792 | 38116 ft | 522 kts | 127° |
| 2026-05-04 13:48 | 41.55933 | 19.26242 | 38113 ft | 522 kts | 127° |
| 2026-05-04 13:49 | 41.51300 | 19.33711 | 38105 ft | 522 kts | 127° |
| 2026-05-04 13:49 | 41.46646 | 19.41193 | 38109 ft | 523 kts | 127° |
| 2026-05-04 13:50 | 41.42042 | 19.48581 | 38115 ft | 523 kts | 127° |
| 2026-05-04 13:50 | 41.37401 | 19.56005 | 38114 ft | 523 kts | 127° |
| 2026-05-04 13:51 | 41.32755 | 19.63422 | 38112 ft | 523 kts | 127° |
| 2026-05-04 13:51 | 41.28096 | 19.70842 | 38119 ft | 523 kts | 127° |
| 2026-05-04 13:52 | 41.21066 | 19.82002 | 38124 ft | 524 kts | 127° |
| 2026-05-04 13:53 | 41.16378 | 19.89421 | 38117 ft | 524 kts | 127° |
| 2026-05-04 13:53 | 41.11713 | 19.96789 | 38122 ft | 524 kts | 127° |
| 2026-05-04 13:54 | 41.04682 | 20.07854 | 38119 ft | 524 kts | 127° |
| 2026-05-04 13:55 | 40.97641 | 20.18897 | 38109 ft | 525 kts | 127° |
| 2026-05-04 13:55 | 40.90595 | 20.29906 | 38116 ft | 525 kts | 127° |
| 2026-05-04 13:56 | 40.85882 | 20.37252 | 38123 ft | 524 kts | 127° |
| 2026-05-04 13:57 | 40.78824 | 20.48220 | 38118 ft | 525 kts | 127° |
| 2026-05-04 13:58 | 40.69344 | 20.62884 | 38125 ft | 526 kts | 127° |
| 2026-05-04 13:58 | 40.62248 | 20.73820 | 38132 ft | 525 kts | 127° |
| 2026-05-04 13:59 | 40.57472 | 20.81159 | 38137 ft | 526 kts | 127° |
| 2026-05-04 14:00 | 40.50374 | 20.92034 | 38139 ft | 526 kts | 128° |
| 2026-05-04 14:00 | 40.42585 | 21.02228 | 38156 ft | 529 kts | 135° |
| 2026-05-04 14:01 | 40.37177 | 21.08724 | 38147 ft | 529 kts | 135° |
| 2026-05-04 14:02 | 40.29051 | 21.18488 | 38139 ft | 528 kts | 135° |
| 2026-05-04 14:02 | 40.23644 | 21.24981 | 38140 ft | 529 kts | 135° |
| 2026-05-04 14:03 | 40.18262 | 21.31430 | 38134 ft | 528 kts | 135° |
| 2026-05-04 14:03 | 40.12824 | 21.37932 | 38131 ft | 529 kts | 135° |
| 2026-05-04 14:04 | 40.04695 | 21.47629 | 38125 ft | 529 kts | 135° |
| 2026-05-04 14:04 | 39.99275 | 21.54075 | 38121 ft | 529 kts | 135° |
| 2026-05-04 14:05 | 39.91138 | 21.63725 | 38124 ft | 529 kts | 135° |
| 2026-05-04 14:06 | 39.85706 | 21.70146 | 38120 ft | 528 kts | 136° |
| 2026-05-04 14:06 | 39.80221 | 21.76617 | 38124 ft | 529 kts | 136° |
| 2026-05-04 14:07 | 39.74693 | 21.83122 | 38126 ft | 529 kts | 135° |
| 2026-05-04 14:07 | 39.69241 | 21.89527 | 38123 ft | 530 kts | 136° |
| 2026-05-04 14:08 | 39.63521 | 21.95513 | 38128 ft | 531 kts | 141° |
| 2026-05-04 14:08 | 39.57544 | 22.01238 | 38121 ft | 532 kts | 142° |
| 2026-05-04 14:09 | 39.48649 | 22.09849 | 38112 ft | 533 kts | 141° |
| 2026-05-04 14:10 | 39.39796 | 22.18490 | 38119 ft | 533 kts | 141° |
| 2026-05-04 14:10 | 39.33880 | 22.24260 | 38127 ft | 534 kts | 141° |
| 2026-05-04 14:11 | 39.27791 | 22.30183 | 38134 ft | 534 kts | 141° |
| 2026-05-04 14:11 | 39.18906 | 22.38806 | 38132 ft | 535 kts | 141° |
| 2026-05-04 14:12 | 39.12958 | 22.44560 | 38135 ft | 536 kts | 141° |
| 2026-05-04 14:13 | 39.03974 | 22.53230 | 38143 ft | 536 kts | 141° |
| 2026-05-04 14:13 | 38.97990 | 22.58992 | 38125 ft | 536 kts | 141° |
| 2026-05-04 14:14 | 38.92049 | 22.64697 | 38128 ft | 537 kts | 141° |
| 2026-05-04 14:14 | 38.83056 | 22.73313 | 38117 ft | 538 kts | 142° |
| 2026-05-04 14:15 | 38.71030 | 22.84786 | 38126 ft | 537 kts | 142° |
| 2026-05-04 14:16 | 38.62037 | 22.93335 | 38124 ft | 537 kts | 142° |
| 2026-05-04 14:17 | 38.53078 | 23.01826 | 38122 ft | 537 kts | 142° |
| 2026-05-04 14:18 | 38.44073 | 23.10329 | 38128 ft | 537 kts | 143° |
| 2026-05-04 14:19 | 38.32029 | 23.21664 | 38122 ft | 537 kts | 143° |
| 2026-05-04 14:19 | 38.26009 | 23.27310 | 38126 ft | 538 kts | 142° |
| 2026-05-04 14:20 | 38.20004 | 23.32932 | 38136 ft | 537 kts | 143° |
| 2026-05-04 14:20 | 38.13968 | 23.38572 | 38126 ft | 538 kts | 143° |
| 2026-05-04 14:21 | 38.04876 | 23.47042 | 38145 ft | 538 kts | 143° |
| 2026-05-04 14:21 | 37.98849 | 23.52646 | 38137 ft | 538 kts | 143° |
| 2026-05-04 14:22 | 37.92797 | 23.58259 | 38139 ft | 539 kts | 143° |
| 2026-05-04 14:22 | 37.86759 | 23.63844 | 38142 ft | 538 kts | 143° |
| 2026-05-04 14:23 | 37.77661 | 23.72247 | 38146 ft | 539 kts | 143° |
| 2026-05-04 14:24 | 37.71606 | 23.77821 | 38139 ft | 539 kts | 143° |
| 2026-05-04 14:24 | 37.65552 | 23.83380 | 38142 ft | 539 kts | 143° |
| 2026-05-04 14:25 | 37.59503 | 23.88928 | 38144 ft | 539 kts | 144° |
| 2026-05-04 14:25 | 37.50420 | 23.97234 | 38147 ft | 540 kts | 143° |
| 2026-05-04 14:26 | 37.44352 | 24.02769 | 38141 ft | 540 kts | 144° |
| 2026-05-04 14:26 | 37.38291 | 24.08288 | 38149 ft | 540 kts | 143° |
| 2026-05-04 14:27 | 37.32180 | 24.13838 | 38144 ft | 540 kts | 144° |
| 2026-05-04 14:27 | 37.26126 | 24.19328 | 38146 ft | 540 kts | 144° |
| 2026-05-04 14:28 | 37.20022 | 24.24852 | 38152 ft | 541 kts | 144° |
| 2026-05-04 14:28 | 37.13942 | 24.30338 | 38143 ft | 540 kts | 144° |
| 2026-05-04 14:29 | 37.01718 | 24.41344 | 38151 ft | 541 kts | 144° |
| 2026-05-04 14:30 | 36.95625 | 24.46812 | 38139 ft | 540 kts | 144° |
| 2026-05-04 14:31 | 36.86454 | 24.55022 | 38151 ft | 541 kts | 144° |
| 2026-05-04 14:32 | 36.74247 | 24.65911 | 38162 ft | 540 kts | 145° |
| 2026-05-04 14:32 | 36.68115 | 24.71368 | 38140 ft | 540 kts | 146° |
| 2026-05-04 14:33 | 36.62018 | 24.76778 | 38144 ft | 541 kts | 146° |
| 2026-05-04 14:33 | 36.55880 | 24.82215 | 38159 ft | 540 kts | 146° |
| 2026-05-04 14:34 | 36.49780 | 24.87611 | 38146 ft | 541 kts | 146° |
| 2026-05-04 14:34 | 36.43665 | 24.93006 | 38136 ft | 541 kts | 146° |
| 2026-05-04 14:35 | 36.37518 | 24.98418 | 38145 ft | 541 kts | 146° |
| 2026-05-04 14:35 | 36.31391 | 25.03804 | 38154 ft | 542 kts | 146° |
| 2026-05-04 14:36 | 36.25242 | 25.09198 | 38148 ft | 541 kts | 146° |
| 2026-05-04 14:36 | 36.19107 | 25.14568 | 38160 ft | 542 kts | 146° |
| 2026-05-04 14:37 | 36.13016 | 25.19894 | 38143 ft | 525 kts | 146° |
| 2026-05-04 14:37 | 36.10090 | 25.22451 | 38145 ft | 510 kts | 146° |
| 2026-05-04 14:37 | 36.07252 | 25.24928 | 38140 ft | 496 kts | 146° |
| 2026-05-04 14:37 | 36.04442 | 25.27377 | 38109 ft | 484 kts | 146° |
| 2026-05-04 14:38 | 36.01722 | 25.29744 | 37649 ft | 480 kts | 147° |
| 2026-05-04 14:38 | 35.99016 | 25.32063 | 36975 ft | 473 kts | 151° |
| 2026-05-04 14:38 | 35.96106 | 25.33888 | 35944 ft | 471 kts | 163° |
| 2026-05-04 14:38 | 35.93015 | 25.35010 | 35038 ft | 465 kts | 175° |
| 2026-05-04 14:39 | 35.89832 | 25.35497 | 34278 ft | 455 kts | 183° |
| 2026-05-04 14:39 | 35.86722 | 25.35727 | 33537 ft | 451 kts | 184° |
| 2026-05-04 14:39 | 35.83580 | 25.35928 | 32792 ft | 446 kts | 184° |
| 2026-05-04 14:40 | 35.77426 | 25.36383 | 31336 ft | 438 kts | 184° |
| 2026-05-04 14:40 | 35.74392 | 25.36636 | 30623 ft | 434 kts | 184° |
| 2026-05-04 14:40 | 35.71418 | 25.36891 | 29913 ft | 430 kts | 184° |
| 2026-05-04 14:40 | 35.68445 | 25.37147 | 29211 ft | 425 kts | 183° |
| 2026-05-04 14:41 | 35.65496 | 25.37402 | 28494 ft | 420 kts | 183° |
| 2026-05-04 14:41 | 35.62598 | 25.37654 | 27581 ft | 422 kts | 183° |
| 2026-05-04 14:41 | 35.56635 | 25.38151 | 24670 ft | 449 kts | 181° |
| 2026-05-04 14:42 | 35.50324 | 25.38708 | 21666 ft | 461 kts | 180° |
| 2026-05-04 14:42 | 35.47137 | 25.38990 | 20187 ft | 462 kts | 179° |
| 2026-05-04 14:42 | 35.43982 | 25.39560 | 18664 ft | 465 kts | 164° |
| 2026-05-04 14:43 | 35.41084 | 25.41190 | 17485 ft | 457 kts | 150° |
| 2026-05-04 14:43 | 35.38444 | 25.43197 | 16459 ft | 444 kts | 148° |
| 2026-05-04 14:43 | 35.35753 | 25.44890 | 15228 ft | 433 kts | 165° |
| 2026-05-04 14:43 | 35.32864 | 25.45326 | 14043 ft | 418 kts | 188° |
| 2026-05-04 14:44 | 35.30096 | 25.44394 | 12828 ft | 399 kts | 212° |
| 2026-05-04 14:44 | 35.28028 | 25.42357 | 11632 ft | 380 kts | 236° |
| 2026-05-04 14:44 | 35.26890 | 25.39595 | 10402 ft | 361 kts | 261° |
| 2026-05-04 14:44 | 35.26853 | 25.36615 | 9116 ft | 347 kts | 286° |
| 2026-05-04 14:45 | 35.27860 | 25.34064 | 7816 ft | 337 kts | 313° |
| 2026-05-04 14:45 | 35.29681 | 25.32439 | 6883 ft | 321 kts | 337° |
| 2026-05-04 14:45 | 35.31625 | 25.31277 | 5644 ft | 323 kts | 324° |
| 2026-05-04 14:45 | 35.33212 | 25.29322 | 3650 ft | 343 kts | 304° |
| 2026-05-04 14:46 | 35.34121 | 25.26733 | 2298 ft | 321 kts | 290° |
| 2026-05-04 14:46 | 35.34124 | 25.24264 | 2374 ft | 273 kts | 262° |
| 2026-05-04 14:46 | 35.33689 | 25.22069 | 1475 ft | 261 kts | 274° |
| 2026-05-04 14:46 | 35.33783 | 25.19951 | 832 ft | 240 kts | 284° |
| 2026-05-04 14:47 | 35.33995 | 25.18114 | 1004 ft | 203 kts | 279° |
| 2026-05-04 14:47 | 35.34092 | 25.16338 | 1798 ft | 215 kts | 276° |
| 2026-05-04 14:47 | 35.34084 | 25.14505 | 2741 ft | 220 kts | 271° |
| 2026-05-04 14:47 | 35.33969 | 25.12662 | 3754 ft | 222 kts | 267° |
| 2026-05-04 14:48 | 35.33805 | 25.10834 | 4760 ft | 222 kts | 269° |
| 2026-05-04 14:48 | 35.33740 | 25.08977 | 5803 ft | 220 kts | 274° |
| 2026-05-04 14:48 | 35.33792 | 25.07161 | 6529 ft | 214 kts | 275° |
| 2026-05-04 14:48 | 35.33754 | 25.05355 | 6813 ft | 214 kts | 273° |
| 2026-05-04 14:49 | 35.33732 | 25.03501 | 6991 ft | 220 kts | 274° |
| 2026-05-04 14:49 | 35.33750 | 25.01621 | 6997 ft | 219 kts | 278° |
| 2026-05-04 14:49 | 35.33889 | 24.99774 | 6999 ft | 218 kts | 281° |
| 2026-05-04 14:49 | 35.34058 | 24.97922 | 7004 ft | 218 kts | 281° |
| 2026-05-04 14:50 | 35.34400 | 24.96146 | 6995 ft | 212 kts | 304° |
| 2026-05-04 14:50 | 35.35319 | 24.94773 | 6995 ft | 209 kts | 327° |
| 2026-05-04 14:50 | 35.36702 | 24.94186 | 7008 ft | 224 kts | 356° |
| 2026-05-04 14:50 | 35.38337 | 24.94231 | 7010 ft | 243 kts | 3° |
| 2026-05-04 14:51 | 35.40049 | 24.94431 | 6999 ft | 245 kts | 5° |
| 2026-05-04 14:51 | 35.41755 | 24.94657 | 6992 ft | 246 kts | 5° |
| 2026-05-04 14:51 | 35.43435 | 24.94888 | 6997 ft | 245 kts | 5° |
| 2026-05-04 14:51 | 35.45139 | 24.95125 | 7001 ft | 244 kts | 5° |
| 2026-05-04 14:52 | 35.46818 | 24.95358 | 7001 ft | 244 kts | 5° |
| 2026-05-04 14:52 | 35.48523 | 24.95595 | 6995 ft | 244 kts | 5° |
| 2026-05-04 14:52 | 35.50200 | 24.95831 | 6991 ft | 243 kts | 5° |
| 2026-05-04 14:52 | 35.51892 | 24.96070 | 6993 ft | 243 kts | 5° |
| 2026-05-04 14:53 | 35.53558 | 24.96309 | 7000 ft | 242 kts | 5° |
| 2026-05-04 14:53 | 35.55242 | 24.96550 | 7000 ft | 242 kts | 5° |
| 2026-05-04 14:53 | 35.56921 | 24.96793 | 7003 ft | 242 kts | 5° |
| 2026-05-04 14:53 | 35.58581 | 24.97034 | 7003 ft | 241 kts | 5° |
| 2026-05-04 14:54 | 35.60231 | 24.97379 | 6989 ft | 244 kts | 18° |
| 2026-05-04 14:54 | 35.61560 | 24.98689 | 6977 ft | 255 kts | 54° |
| 2026-05-04 14:54 | 35.62040 | 25.00822 | 6994 ft | 266 kts | 83° |
| 2026-05-04 14:54 | 35.61943 | 25.03100 | 6983 ft | 273 kts | 102° |
| 2026-05-04 14:55 | 35.61153 | 25.05247 | 6991 ft | 277 kts | 114° |
| 2026-05-04 14:55 | 35.60264 | 25.07343 | 6995 ft | 277 kts | 114° |
| 2026-05-04 14:55 | 35.59340 | 25.09424 | 6995 ft | 278 kts | 116° |
| 2026-05-04 14:55 | 35.58390 | 25.11479 | 6989 ft | 279 kts | 116° |
| 2026-05-04 14:56 | 35.57413 | 25.13539 | 6987 ft | 279 kts | 117° |
| 2026-05-04 14:56 | 35.56418 | 25.15607 | 6983 ft | 279 kts | 117° |
| 2026-05-04 14:56 | 35.55431 | 25.17641 | 6992 ft | 279 kts | 117° |
| 2026-05-04 14:56 | 35.54435 | 25.19688 | 6993 ft | 278 kts | 117° |
| 2026-05-04 14:57 | 35.53428 | 25.21752 | 6895 ft | 279 kts | 117° |
| 2026-05-04 14:57 | 35.52401 | 25.23853 | 6554 ft | 278 kts | 117° |
| 2026-05-04 14:57 | 35.51402 | 25.25898 | 6236 ft | 278 kts | 117° |
| 2026-05-04 14:57 | 35.50410 | 25.27926 | 5914 ft | 277 kts | 117° |
| 2026-05-04 14:58 | 35.49423 | 25.29943 | 5589 ft | 277 kts | 117° |
| 2026-05-04 14:58 | 35.48432 | 25.31966 | 5245 ft | 277 kts | 117° |
| 2026-05-04 14:58 | 35.47434 | 25.33984 | 4831 ft | 281 kts | 121° |
| 2026-05-04 14:58 | 35.46003 | 25.35647 | 4395 ft | 289 kts | 148° |
| 2026-05-04 14:59 | 35.44200 | 25.36767 | 3987 ft | 292 kts | 154° |
| 2026-05-04 14:59 | 35.42348 | 25.37788 | 3568 ft | 295 kts | 156° |
| 2026-05-04 14:59 | 35.38361 | 25.37969 | 2984 ft | 286 kts | 197° |
| 2026-05-04 15:00 | 35.36473 | 25.37282 | 2978 ft | 273 kts | 198° |
| 2026-05-04 15:00 | 35.34685 | 25.36649 | 2974 ft | 259 kts | 197° |
| 2026-05-04 15:00 | 35.33054 | 25.35943 | 2976 ft | 238 kts | 214° |
| 2026-05-04 15:01 | 35.32237 | 25.32831 | 2941 ft | 167 kts | 293° |
| 2026-05-04 15:01 | 35.32581 | 25.31575 | 2948 ft | 153 kts | 294° |
| 2026-05-04 15:01 | 35.32863 | 25.30343 | 2960 ft | 146 kts | 290° |
| 2026-05-04 15:01 | 35.33071 | 25.29128 | 2975 ft | 146 kts | 287° |
| 2026-05-04 15:02 | 35.33224 | 25.27893 | 2851 ft | 149 kts | 282° |
| 2026-05-04 15:02 | 35.33271 | 25.26621 | 2464 ft | 149 kts | 279° |
| 2026-05-04 15:02 | 35.33306 | 25.25348 | 2080 ft | 149 kts | 278° |
| 2026-05-04 15:02 | 35.33334 | 25.24082 | 1630 ft | 151 kts | 283° |
| 2026-05-04 15:03 | 35.33514 | 25.22799 | 1086 ft | 157 kts | 287° |
| 2026-05-04 15:03 | 35.33695 | 25.21526 | 790 ft | 148 kts | 277° |
| 2026-05-04 15:03 | 35.33801 | 25.20275 | 399 ft | 148 kts | 278° |
| 2026-05-04 15:03 | 35.33885 | 25.19070 | 163 ft | 137 kts | 280° |
| 2026-05-04 15:04 | 35.33978 | 25.18004 | 100 ft | 105 kts | 277° |
| 2026-05-04 15:04 | 35.34020 | 25.17376 | 99 ft | 48 kts | 273° |
| 2026-05-04 15:04 | 35.34042 | 25.17093 | 97 ft | 26 kts | 271° |
| 2026-05-04 15:04 | 35.34049 | 25.16946 | 98 ft | 14 kts | 274° |
| 2026-05-04 15:05 | 35.34044 | 25.16876 | 98 ft | 1 kts | 226° |
| 2026-05-04 15:05 | 35.34026 | 25.16876 | 99 ft | 4 kts | 165° |
| 2026-05-04 15:05 | 35.34002 | 25.16889 | 100 ft | 0 kts | 143° |
| 2026-05-04 15:05 | 35.34001 | 25.16891 | 100 ft | 0 kts | 128° |
| 2026-05-04 15:06 | 35.33998 | 25.16896 | 100 ft | 0 kts | 124° |